Time;durP1;ratioP1;P1;durP2;ratioP2;P2;SDS_P1;SDS_P2;PMS_P1;PMS_P2;Temp;Humidity;BMP_temperature;BMP_pressure;BME280_temperature;BME280_humidity;BME280_pressure;Samples;Min_cycle;Max_cycle;Signal;HPM_P1;HPM_P2
2022/08/26 00:01:09;;;;;;;18.45;12.55;;;20.10;99.20;;;;;;5077999;28;20036;-63
2022/08/26 00:03:35;;;;;;;20.02;14.18;;;20.10;99.30;;;;;;5071377;28;20036;-63
2022/08/26 00:06:01;;;;;;;21.30;14.80;;;20.00;99.40;;;;;;5049781;28;20071;-62
2022/08/26 00:08:26;;;;;;;19.45;14.25;;;20.00;99.50;;;;;;5074427;28;20127;-63
2022/08/26 00:10:52;;;;;;;20.58;14.77;;;19.90;99.60;;;;;;5069349;28;20044;-62
2022/08/26 00:13:17;;;;;;;20.35;15.75;;;19.80;99.70;;;;;;5080116;28;20119;-63
2022/08/26 00:15:45;;;;;;;28.33;18.27;;;19.80;99.70;;;;;;5076814;28;20365;-63
2022/08/26 00:18:11;;;;;;;24.33;17.42;;;19.80;99.90;;;;;;5082086;28;20450;-63
2022/08/26 00:20:38;;;;;;;25.80;17.80;;;19.70;99.90;;;;;;5066575;28;20167;-63
2022/08/26 00:23:04;;;;;;;23.67;18.63;;;19.70;99.90;;;;;;5087649;28;20075;-62
2022/08/26 00:25:29;;;;;;;25.00;17.85;;;19.70;99.90;;;;;;5081003;28;20072;-62
2022/08/26 00:27:55;;;;;;;26.08;19.48;;;19.70;99.90;;;;;;5080563;28;20119;-62
2022/08/26 00:30:23;;;;;;;25.60;20.30;;;19.70;99.90;;;;;;5088161;28;20484;-62
2022/08/26 00:32:49;;;;;;;31.02;23.35;;;19.80;99.90;;;;;;5086018;28;20409;-63
2022/08/26 00:35:15;;;;;;;29.30;23.83;;;19.70;99.90;;;;;;5087474;28;20083;-63
2022/08/26 00:37:41;;;;;;;31.42;23.45;;;19.70;99.90;;;;;;5069100;28;20082;-63
2022/08/26 00:40:11;;;;;;;30.98;25.77;;;19.70;99.90;;;;;;5083009;28;20040;-62
2022/08/26 00:42:36;;;;;;;30.95;25.05;;;19.70;99.90;;;;;;5086548;28;20047;-63
2022/08/26 00:45:03;;;;;;;33.67;26.40;;;19.60;99.90;;;;;;5087059;28;20074;-63
2022/08/26 00:47:37;;;;;;;42.35;30.20;;;19.60;99.90;;;;;;5062834;28;20044;-63
2022/08/26 00:50:09;;;;;;;36.88;28.85;;;19.60;99.90;;;;;;5075823;28;20040;-63
2022/08/26 00:52:35;;;;;;;39.10;31.00;;;19.60;99.90;;;;;;5064052;28;20046;-63
2022/08/26 00:55:14;;;;;;;36.45;29.02;;;19.50;99.90;;;;;;5082735;28;20457;-62
2022/08/26 00:57:41;;;;;;;42.28;31.42;;;19.60;99.90;;;;;;5075833;28;20036;-62
2022/08/26 01:00:13;;;;;;;41.92;32.78;;;19.60;99.90;;;;;;5076296;28;20052;-63
2022/08/26 01:02:39;;;;;;;40.55;31.65;;;19.60;99.90;;;;;;5078634;28;20036;-62
2022/08/26 01:05:07;;;;;;;43.38;34.03;;;19.60;99.90;;;;;;5085149;28;20044;-63
2022/08/26 01:07:33;;;;;;;43.17;33.10;;;19.60;99.90;;;;;;5065248;28;20048;-63
2022/08/26 01:10:01;;;;;;;45.60;34.97;;;19.60;99.90;;;;;;5078582;28;20376;-62
2022/08/26 01:12:30;;;;;;;45.55;34.67;;;19.60;99.90;;;;;;5089011;28;20560;-62
2022/08/26 01:14:55;;;;;;;48.10;35.25;;;19.60;99.90;;;;;;5083728;28;20145;-62
2022/08/26 01:17:21;;;;;;;47.40;32.30;;;19.70;99.90;;;;;;5079921;28;20028;-62
2022/08/26 01:19:52;;;;;;;43.80;34.17;;;19.70;99.90;;;;;;5086866;28;20032;-62
2022/08/26 01:22:30;;;;;;;50.17;35.25;;;19.70;99.90;;;;;;5081898;28;20082;-63
2022/08/26 01:24:58;;;;;;;48.53;33.38;;;19.70;99.90;;;;;;5072075;28;20505;-63
2022/08/26 01:27:24;;;;;;;48.08;34.63;;;19.70;99.90;;;;;;5081399;28;20047;-62
2022/08/26 01:29:51;;;;;;;47.78;34.42;;;19.70;99.90;;;;;;5082735;28;20036;-63
2022/08/26 01:32:20;;;;;;;52.17;34.65;;;19.70;99.90;;;;;;5076811;28;20427;-62
2022/08/26 01:34:47;;;;;;;54.75;35.90;;;19.70;99.90;;;;;;5077492;28;20039;-63
2022/08/26 01:37:16;;;;;;;51.05;34.95;;;19.70;99.90;;;;;;5055294;28;20059;-62
2022/08/26 01:39:43;;;;;;;51.72;35.58;;;19.70;99.90;;;;;;5080806;28;20038;-63
2022/08/26 01:42:11;;;;;;;52.80;33.95;;;19.70;99.90;;;;;;5065038;28;20036;-62
2022/08/26 01:45:09;;;;;;;52.30;35.53;;;19.70;99.90;;;;;;5081409;28;20111;-63
2022/08/26 01:47:36;;;;;;;46.42;33.25;;;19.70;99.90;;;;;;5075005;28;20113;-63
2022/08/26 01:50:07;;;;;;;52.72;34.00;;;19.70;99.90;;;;;;5077381;28;20044;-62
2022/08/26 01:52:36;;;;;;;52.45;32.15;;;19.70;99.90;;;;;;5081502;28;20052;-62
2022/08/26 01:55:03;;;;;;;50.07;33.53;;;19.80;99.90;;;;;;5078423;28;20040;-63
2022/08/26 01:57:29;;;;;;;47.15;31.08;;;19.80;99.90;;;;;;5081661;28;20487;-62
2022/08/26 01:59:58;;;;;;;45.53;31.65;;;19.90;99.90;;;;;;5087875;28;20395;-63
2022/08/26 02:02:25;;;;;;;45.40;30.98;;;20.00;99.90;;;;;;5081635;28;20044;-62
2022/08/26 02:04:56;;;;;;;51.75;32.15;;;20.00;99.90;;;;;;5087662;28;20036;-62
2022/08/26 02:07:23;;;;;;;48.53;31.17;;;20.10;99.90;;;;;;5075947;28;20043;-63
2022/08/26 02:09:48;;;;;;;46.83;28.75;;;20.10;99.90;;;;;;5071489;28;20480;-62
2022/08/26 02:12:17;;;;;;;45.42;29.15;;;20.10;99.90;;;;;;5073098;28;20037;-63
2022/08/26 02:14:48;;;;;;;40.92;28.52;;;20.10;99.90;;;;;;5082393;28;20595;-62
2022/08/26 02:17:15;;;;;;;45.95;29.92;;;20.20;99.90;;;;;;5081665;28;20089;-62
2022/08/26 02:19:46;;;;;;;40.25;28.73;;;20.20;99.90;;;;;;5075731;28;20039;-62
2022/08/26 02:22:16;;;;;;;46.53;28.23;;;20.20;99.90;;;;;;5083124;28;20083;-62
2022/08/26 02:24:51;;;;;;;45.92;27.20;;;20.30;99.90;;;;;;5079451;28;20038;-62
2022/08/26 02:27:29;;;;;;;41.47;27.02;;;20.30;99.90;;;;;;5061154;28;20049;-63
2022/08/26 02:30:24;;;;;;;41.63;27.35;;;20.30;99.90;;;;;;5083377;28;20182;-63
2022/08/26 02:32:50;;;;;;;38.05;26.30;;;20.30;99.90;;;;;;5073862;28;20605;-63
2022/08/26 02:35:17;;;;;;;45.85;27.17;;;20.30;99.90;;;;;;5080997;28;20063;-63
2022/08/26 02:37:43;;;;;;;39.72;25.55;;;20.40;99.90;;;;;;5076738;28;20047;-63
2022/08/26 02:40:12;;;;;;;36.97;25.63;;;20.40;99.90;;;;;;5085349;28;20388;-63
2022/08/26 02:42:37;;;;;;;40.25;25.55;;;20.40;99.90;;;;;;5080673;28;20127;-63
2022/08/26 02:45:05;;;;;;;46.83;25.85;;;20.40;99.90;;;;;;5077575;28;20257;-62
2022/08/26 02:47:32;;;;;;;39.83;24.83;;;20.40;99.90;;;;;;5086333;28;20060;-63
2022/08/26 02:49:58;;;;;;;35.88;23.75;;;20.40;99.90;;;;;;5073162;28;20619;-63
2022/08/26 02:52:24;;;;;;;38.50;25.35;;;20.40;99.90;;;;;;5074764;28;20037;-63
2022/08/26 02:54:49;;;;;;;38.65;23.45;;;20.30;99.90;;;;;;5075076;28;20025;-63
2022/08/26 02:57:16;;;;;;;38.65;26.33;;;20.40;99.90;;;;;;5081119;28;20121;-63
2022/08/26 02:59:42;;;;;;;36.13;25.13;;;20.40;99.90;;;;;;5080695;28;20036;-62
2022/08/26 03:02:09;;;;;;;44.20;27.60;;;20.30;99.90;;;;;;5069474;28;21034;-63
2022/08/26 03:04:35;;;;;;;40.63;26.00;;;20.40;99.90;;;;;;5076359;28;20041;-63
2022/08/26 03:07:01;;;;;;;49.25;28.50;;;20.40;99.90;;;;;;5080984;28;20404;-63
2022/08/26 03:09:27;;;;;;;42.35;26.13;;;20.40;99.90;;;;;;5075097;28;20043;-62
2022/08/26 03:11:54;;;;;;;41.17;27.67;;;20.40;99.90;;;;;;5085326;28;20074;-62
2022/08/26 03:14:20;;;;;;;42.08;25.67;;;20.40;99.90;;;;;;5082886;28;20062;-62
2022/08/26 03:16:46;;;;;;;45.08;27.88;;;20.40;99.90;;;;;;5069213;28;20126;-63
2022/08/26 03:19:11;;;;;;;44.80;28.48;;;20.40;99.90;;;;;;5076408;28;20037;-63
2022/08/26 03:21:38;;;;;;;42.83;27.42;;;20.40;99.90;;;;;;5069325;28;20037;-63
2022/08/26 03:24:04;;;;;;;43.30;27.92;;;20.40;99.90;;;;;;5088134;28;20063;-62
2022/08/26 03:26:30;;;;;;;39.75;26.77;;;20.40;99.90;;;;;;5091034;28;20140;-62
2022/08/26 03:31:40;;;;;;;42.78;27.48;;;20.50;99.90;;;;;;5087097;28;20040;-62
2022/08/26 03:34:06;;;;;;;47.97;27.10;;;20.40;99.90;;;;;;5082145;28;20044;-63
2022/08/26 03:36:32;;;;;;;43.00;27.85;;;20.50;99.90;;;;;;5078647;28;20039;-62
2022/08/26 03:38:58;;;;;;;45.70;28.08;;;20.50;99.90;;;;;;5079183;28;20376;-62
2022/08/26 03:41:23;;;;;;;39.45;26.83;;;20.50;99.90;;;;;;5079451;28;20109;-63
2022/08/26 03:43:49;;;;;;;41.55;26.98;;;20.50;99.90;;;;;;5088143;28;20085;-62
2022/08/26 03:46:16;;;;;;;43.00;29.08;;;20.50;99.90;;;;;;5089537;28;20509;-62
2022/08/26 03:48:42;;;;;;;44.88;27.92;;;20.50;99.90;;;;;;5082011;28;20052;-62
2022/08/26 03:51:13;;;;;;;41.95;26.98;;;20.50;99.90;;;;;;5077771;28;20051;-62
2022/08/26 03:53:39;;;;;;;36.83;25.50;;;20.60;99.90;;;;;;5077868;28;20527;-62
2022/08/26 03:56:05;;;;;;;40.92;27.15;;;20.50;99.90;;;;;;5081185;28;20063;-63
2022/08/26 03:58:31;;;;;;;42.95;26.17;;;20.60;99.90;;;;;;5077481;28;20131;-63
2022/08/26 04:00:57;;;;;;;41.75;24.83;;;20.60;99.90;;;;;;5081410;28;20048;-62
2022/08/26 04:06:08;;;;;;;41.78;24.55;;;20.60;99.90;;;;;;5088496;28;20040;-63
2022/08/26 04:08:34;;;;;;;36.28;26.33;;;20.60;99.90;;;;;;5082857;28;20035;-63
2022/08/26 04:11:00;;;;;;;39.17;25.00;;;20.60;99.90;;;;;;5084524;28;20039;-63
2022/08/26 04:13:26;;;;;;;38.35;25.38;;;20.50;99.90;;;;;;5087063;28;20028;-63
2022/08/26 04:15:52;;;;;;;35.90;23.77;;;20.50;99.90;;;;;;5087460;28;20039;-63
2022/08/26 04:18:18;;;;;;;36.00;23.70;;;20.50;99.90;;;;;;5068991;28;20846;-63
2022/08/26 04:20:43;;;;;;;39.47;23.13;;;20.50;99.90;;;;;;5037855;28;20097;-63
2022/08/26 04:23:09;;;;;;;36.40;24.17;;;20.50;99.90;;;;;;5085795;28;20074;-63
2022/08/26 04:25:35;;;;;;;37.97;22.15;;;20.50;99.90;;;;;;5090561;28;20036;-63
2022/08/26 04:28:01;;;;;;;35.17;23.15;;;20.50;99.90;;;;;;5079393;28;20039;-63
2022/08/26 04:30:27;;;;;;;39.70;23.05;;;20.60;99.90;;;;;;5062772;28;21036;-63
2022/08/26 04:32:52;;;;;;;35.65;21.65;;;20.50;99.90;;;;;;5085567;28;20688;-63
2022/08/26 04:35:18;;;;;;;37.00;21.27;;;20.60;99.90;;;;;;5079191;28;20545;-63
2022/08/26 04:37:43;;;;;;;39.05;22.35;;;20.60;99.90;;;;;;5085364;28;20044;-63
2022/08/26 04:40:09;;;;;;;35.22;21.10;;;20.60;99.90;;;;;;5085155;28;20039;-62
2022/08/26 04:42:35;;;;;;;35.00;20.70;;;20.60;99.90;;;;;;5084672;28;20043;-63
2022/08/26 04:45:02;;;;;;;34.03;20.30;;;20.60;99.90;;;;;;5068091;28;20048;-62
2022/08/26 04:47:27;;;;;;;33.13;20.13;;;20.60;99.90;;;;;;5066085;28;20036;-63
2022/08/26 04:49:56;;;;;;;31.80;20.05;;;20.50;99.90;;;;;;5085437;28;20815;-63
2022/08/26 04:52:22;;;;;;;33.75;20.35;;;20.60;99.90;;;;;;5065554;28;20032;-63
2022/08/26 04:54:48;;;;;;;31.15;19.25;;;20.60;99.90;;;;;;5065710;28;20075;-63
2022/08/26 04:57:14;;;;;;;37.83;19.13;;;20.60;99.90;;;;;;5090353;28;20044;-63
2022/08/26 04:59:40;;;;;;;32.20;19.85;;;20.60;99.90;;;;;;5072147;28;20056;-63
2022/08/26 05:02:06;;;;;;;33.55;18.33;;;20.60;99.90;;;;;;5071530;28;20119;-63
2022/08/26 05:04:32;;;;;;;36.17;19.67;;;20.60;99.90;;;;;;5080966;28;20210;-63
2022/08/26 05:06:57;;;;;;;33.13;18.90;;;20.60;99.90;;;;;;5076037;28;20040;-63
2022/08/26 05:09:24;;;;;;;31.00;18.00;;;20.60;99.90;;;;;;5071549;28;20040;-62
2022/08/26 05:11:50;;;;;;;27.75;17.65;;;20.60;99.90;;;;;;5083228;28;20045;-63
2022/08/26 05:14:16;;;;;;;31.50;19.70;;;20.70;99.90;;;;;;5083677;28;20044;-63
2022/08/26 05:16:42;;;;;;;32.90;18.63;;;20.70;99.90;;;;;;5090440;28;20039;-63
2022/08/26 05:19:08;;;;;;;32.25;18.25;;;20.70;99.90;;;;;;5071742;28;20487;-63
2022/08/26 05:21:34;;;;;;;25.67;16.77;;;20.70;99.90;;;;;;5090801;28;20047;-63
2022/08/26 05:24:00;;;;;;;30.10;17.92;;;20.70;99.90;;;;;;5087792;28;20040;-63
2022/08/26 05:26:28;;;;;;;31.48;17.27;;;20.80;99.90;;;;;;5066022;28;20071;-63
2022/08/26 05:28:54;;;;;;;30.45;18.55;;;20.80;99.90;;;;;;5089997;28;20119;-64
2022/08/26 05:31:27;;;;;;;36.33;18.02;;;20.80;99.90;;;;;;5066622;28;20044;-63
2022/08/26 05:33:53;;;;;;;27.85;17.20;;;20.80;99.90;;;;;;5090036;28;20039;-63
2022/08/26 05:36:21;;;;;;;33.60;17.15;;;20.80;99.90;;;;;;5084478;28;20040;-63
2022/08/26 05:38:47;;;;;;;24.50;16.27;;;20.80;99.90;;;;;;5087743;28;20084;-63
2022/08/26 05:41:27;;;;;;;25.33;16.25;;;20.80;99.90;;;;;;5090645;28;20038;-63
2022/08/26 05:43:56;;;;;;;29.65;17.13;;;20.90;99.90;;;;;;5079657;28;20404;-63
2022/08/26 05:46:23;;;;;;;25.15;16.33;;;20.90;99.90;;;;;;5089240;28;20048;-62
2022/08/26 05:48:48;;;;;;;28.13;17.13;;;20.90;99.90;;;;;;5084936;28;20052;-63
2022/08/26 05:51:14;;;;;;;27.27;17.27;;;20.90;99.90;;;;;;5088579;28;20457;-64
2022/08/26 05:53:41;;;;;;;32.40;16.38;;;20.90;99.90;;;;;;5086413;28;20039;-63
2022/08/26 05:56:09;;;;;;;29.95;18.27;;;20.90;99.90;;;;;;5088900;28;20070;-63
2022/08/26 05:58:36;;;;;;;29.48;17.52;;;21.00;99.90;;;;;;5087177;28;20036;-63
2022/08/26 06:01:06;;;;;;;28.42;18.05;;;20.90;99.90;;;;;;5083903;28;20061;-63
2022/08/26 06:03:34;;;;;;;32.50;17.67;;;21.00;99.90;;;;;;5085992;28;20043;-63
2022/08/26 06:06:09;;;;;;;26.17;16.75;;;21.00;99.90;;;;;;5085333;28;20042;-63
2022/08/26 06:08:35;;;;;;;29.38;16.65;;;21.00;99.90;;;;;;5088741;28;20032;-63
2022/08/26 06:11:07;;;;;;;27.00;16.23;;;21.10;99.90;;;;;;5089466;28;20028;-63
2022/08/26 06:13:33;;;;;;;27.92;16.63;;;21.10;99.90;;;;;;5065169;28;20047;-62
2022/08/26 06:16:03;;;;;;;29.60;15.90;;;21.10;99.90;;;;;;5088600;28;20562;-62
2022/08/26 06:18:33;;;;;;;28.10;16.40;;;21.10;99.90;;;;;;5090222;28;20138;-62
2022/08/26 06:21:11;;;;;;;30.98;17.52;;;21.10;99.90;;;;;;5081937;28;20084;-63
2022/08/26 06:26:21;;;;;;;28.83;16.30;;;21.00;99.90;;;;;;5079014;28;20044;-63
2022/08/26 06:28:46;;;;;;;30.15;15.18;;;21.10;99.90;;;;;;5080588;28;20080;-63
2022/08/26 06:31:13;;;;;;;23.98;14.73;;;21.10;99.90;;;;;;5064187;28;20032;-62
2022/08/26 06:33:38;;;;;;;29.88;14.93;;;21.10;99.90;;;;;;5080851;28;20062;-62
2022/08/26 06:36:04;;;;;;;25.30;14.35;;;21.10;99.90;;;;;;5081291;28;20507;-63
2022/08/26 06:38:30;;;;;;;25.95;15.23;;;21.20;99.90;;;;;;5066951;28;20039;-63
2022/08/26 06:40:56;;;;;;;26.00;15.60;;;21.20;99.90;;;;;;5078636;28;20060;-62
2022/08/26 06:43:25;;;;;;;30.10;14.77;;;21.20;99.90;;;;;;5072251;28;20040;-62
2022/08/26 06:45:58;;;;;;;25.58;13.98;;;21.20;99.90;;;;;;5083064;28;20515;-62
2022/08/26 06:48:23;;;;;;;27.10;13.93;;;21.20;99.90;;;;;;5066227;28;20461;-63
2022/08/26 06:50:49;;;;;;;22.65;13.70;;;21.30;99.90;;;;;;5085548;28;20157;-62
2022/08/26 06:53:15;;;;;;;22.20;13.00;;;21.40;99.90;;;;;;5070153;28;20131;-63
2022/08/26 06:55:44;;;;;;;24.27;14.23;;;21.50;99.90;;;;;;5087872;28;20456;-63
2022/08/26 06:58:10;;;;;;;22.42;13.15;;;21.50;99.90;;;;;;5075106;28;20044;-63
2022/08/26 07:00:37;;;;;;;21.60;11.93;;;21.60;99.90;;;;;;5070923;28;20052;-63
2022/08/26 07:03:04;;;;;;;26.45;14.40;;;21.60;99.90;;;;;;5071956;28;20044;-63
2022/08/26 07:05:30;;;;;;;18.95;13.30;;;21.70;99.90;;;;;;5052069;28;20048;-63
2022/08/26 07:07:56;;;;;;;26.40;13.45;;;21.70;99.90;;;;;;5074847;28;20039;-62
2022/08/26 07:10:23;;;;;;;22.40;12.88;;;21.70;99.90;;;;;;5069221;28;20051;-62
2022/08/26 07:12:49;;;;;;;23.58;11.98;;;21.60;99.90;;;;;;5073688;28;20037;-63
2022/08/26 07:15:15;;;;;;;22.73;12.38;;;21.60;99.90;;;;;;5070224;28;20047;-63
2022/08/26 07:17:41;;;;;;;19.80;12.30;;;21.60;99.90;;;;;;5071942;28;20532;-63
2022/08/26 07:20:08;;;;;;;21.67;11.52;;;21.60;99.90;;;;;;5072214;28;20040;-63
2022/08/26 07:22:35;;;;;;;18.90;11.80;;;21.70;99.90;;;;;;5083967;28;20043;-62
2022/08/26 07:25:03;;;;;;;19.52;10.77;;;21.60;99.90;;;;;;5086706;28;20123;-64
2022/08/26 07:27:28;;;;;;;18.83;10.50;;;21.70;99.90;;;;;;5087114;28;20487;-63
2022/08/26 07:29:57;;;;;;;18.95;10.00;;;21.80;99.90;;;;;;5084730;28;20042;-63
2022/08/26 07:32:22;;;;;;;17.25;11.05;;;21.90;99.90;;;;;;5085939;28;20059;-64
2022/08/26 07:34:48;;;;;;;18.05;9.93;;;22.00;99.90;;;;;;5085069;28;20020;-62
2022/08/26 07:37:14;;;;;;;16.25;10.25;;;22.10;99.90;;;;;;5086018;28;20055;-63
2022/08/26 07:39:40;;;;;;;21.77;10.52;;;22.30;99.90;;;;;;5084104;28;20032;-63
2022/08/26 07:42:08;;;;;;;21.23;9.10;;;22.40;99.90;;;;;;5086210;28;20093;-63
2022/08/26 07:44:35;;;;;;;19.15;9.93;;;22.40;99.90;;;;;;5086409;28;20079;-63
2022/08/26 07:47:01;;;;;;;18.77;9.90;;;22.60;99.90;;;;;;5066988;28;20454;-63
2022/08/26 07:49:26;;;;;;;16.58;9.02;;;22.60;99.90;;;;;;5082315;28;20036;-63
2022/08/26 07:51:53;;;;;;;15.23;9.32;;;22.60;99.90;;;;;;5083292;28;20036;-63
2022/08/26 07:54:19;;;;;;;19.15;8.98;;;22.70;99.90;;;;;;5086227;28;20028;-63
2022/08/26 07:56:47;;;;;;;16.27;8.93;;;22.70;99.90;;;;;;5084881;28;20062;-64
2022/08/26 07:59:13;;;;;;;18.35;9.30;;;22.70;99.90;;;;;;5084458;28;20039;-63
2022/08/26 08:01:39;;;;;;;18.52;8.57;;;22.80;99.90;;;;;;5081754;28;20036;-63
2022/08/26 08:04:05;;;;;;;15.05;8.55;;;22.90;99.90;;;;;;5085175;28;20101;-63
2022/08/26 08:06:32;;;;;;;16.95;7.85;;;23.10;99.90;;;;;;5085237;28;20032;-64
2022/08/26 08:08:59;;;;;;;14.90;7.63;;;23.30;99.90;;;;;;5084810;28;20044;-63
2022/08/26 08:11:27;;;;;;;10.52;7.13;;;23.40;99.90;;;;;;5086862;28;20500;-63
2022/08/26 08:13:54;;;;;;;16.75;7.35;;;23.50;99.90;;;;;;5090260;28;20040;-63
2022/08/26 08:16:19;;;;;;;16.20;7.40;;;23.50;99.90;;;;;;5089010;28;20024;-63
2022/08/26 08:18:45;;;;;;;18.80;7.68;;;23.60;99.90;;;;;;5088816;28;20076;-63
2022/08/26 08:21:11;;;;;;;15.45;7.30;;;23.60;99.90;;;;;;5068536;28;20162;-63
2022/08/26 08:23:38;;;;;;;14.57;7.60;;;23.50;99.90;;;;;;5086251;28;20040;-63
2022/08/26 08:26:08;;;;;;;15.18;6.70;;;23.50;99.90;;;;;;5067034;28;20142;-64
2022/08/26 08:28:34;;;;;;;16.15;7.25;;;23.60;99.90;;;;;;5086624;28;21688;-64
2022/08/26 08:31:00;;;;;;;16.05;7.75;;;23.70;99.90;;;;;;5065972;28;20040;-64
2022/08/26 08:33:28;;;;;;;13.77;7.43;;;23.90;99.60;;;;;;5081122;28;20533;-63
2022/08/26 08:35:55;;;;;;;14.23;7.35;;;24.00;99.40;;;;;;5061358;28;20047;-64
2022/08/26 08:38:21;;;;;;;9.63;6.15;;;24.20;99.10;;;;;;5082657;28;20024;-63
2022/08/26 08:40:47;;;;;;;11.45;5.88;;;24.40;98.60;;;;;;5082128;28;20093;-64
2022/08/26 08:43:38;;;;;;;10.20;5.72;;;24.70;98.20;;;;;;5084613;28;20032;-63
2022/08/26 08:46:12;;;;;;;13.80;6.22;;;24.80;97.40;;;;;;5081222;28;20075;-64
2022/08/26 08:48:43;;;;;;;10.30;6.13;;;24.80;97.30;;;;;;5079285;28;20054;-64
2022/08/26 08:51:12;;;;;;;;;;;24.80;96.90;;;;;;5080614;28;20052;-65
2022/08/26 08:53:41;;;;;;;10.57;5.43;;;24.80;96.10;;;;;;5082226;28;19966;-64
2022/08/26 08:56:30;;;;;;;17.55;5.85;;;24.80;96.70;;;;;;5083142;28;20649;-64
2022/08/26 08:59:16;;;;;;;12.80;5.18;;;24.90;95.50;;;;;;5083575;28;20032;-63
2022/08/26 09:01:50;;;;;;;9.63;4.63;;;24.80;95.20;;;;;;5083107;28;20548;-64
2022/08/26 09:04:25;;;;;;;13.52;4.72;;;24.80;95.70;;;;;;5081979;28;20032;-64
2022/08/26 09:06:54;;;;;;;13.93;4.38;;;24.70;95.10;;;;;;5082082;28;20063;-64
2022/08/26 09:09:39;;;;;;;9.30;3.70;;;24.60;95.50;;;;;;5049170;28;20032;-63
2022/08/26 09:12:13;;;;;;;7.15;3.70;;;24.60;95.10;;;;;;5087473;28;20044;-64
2022/08/26 09:14:39;;;;;;;5.57;3.58;;;24.50;94.90;;;;;;5088492;28;20036;-64
2022/08/26 09:17:38;;;;;;;8.10;3.70;;;24.50;95.60;;;;;;5089390;28;20106;-64
2022/08/26 09:20:13;;;;;;;9.70;3.50;;;24.50;95.00;;;;;;5083562;28;20119;-64
2022/08/26 09:22:40;;;;;;;6.55;3.55;;;24.40;95.30;;;;;;5086796;28;20702;-65
2022/08/26 09:25:09;;;;;;;7.88;3.22;;;24.40;95.40;;;;;;5089260;28;21766;-64
2022/08/26 09:27:47;;;;;;;6.03;3.05;;;24.40;95.40;;;;;;5088846;28;20036;-64
2022/08/26 09:30:22;;;;;;;9.68;3.03;;;24.30;95.50;;;;;;5087493;28;20445;-64
2022/08/26 09:33:01;;;;;;;9.13;2.83;;;24.20;95.80;;;;;;5068932;28;20032;-63
2022/08/26 09:35:36;;;;;;;7.97;2.83;;;24.10;95.70;;;;;;5087267;28;20039;-64
2022/08/26 09:38:21;;;;;;;11.20;2.80;;;24.00;95.70;;;;;;5086444;28;20055;-64
2022/08/26 09:40:59;;;;;;;9.38;3.00;;;24.00;95.70;;;;;;5084243;28;20039;-64
2022/08/26 09:43:27;;;;;;;8.52;2.55;;;23.90;95.70;;;;;;5088330;28;20032;-64
2022/08/26 09:46:09;;;;;;;8.60;2.78;;;23.90;96.00;;;;;;5087043;28;20113;-64
2022/08/26 09:48:38;;;;;;;7.30;2.28;;;23.90;96.00;;;;;;5086719;28;20048;-64
2022/08/26 09:51:23;;;;;;;6.93;2.75;;;23.90;96.10;;;;;;5081439;28;20052;-63
2022/08/26 09:54:00;;;;;;;7.93;2.53;;;23.80;96.10;;;;;;5086290;28;20424;-63
2022/08/26 09:56:34;;;;;;;6.20;2.30;;;23.80;96.00;;;;;;5086866;28;20032;-64
2022/08/26 09:59:01;;;;;;;9.57;2.90;;;23.90;96.00;;;;;;5084785;28;20178;-64
2022/08/26 10:01:35;;;;;;;7.05;1.90;;;24.00;96.00;;;;;;5086958;28;20119;-64
2022/08/26 10:04:10;;;;;;;9.00;2.10;;;24.00;95.70;;;;;;5085283;28;20043;-63
2022/08/26 10:06:56;;;;;;;7.90;2.05;;;24.00;95.70;;;;;;5084813;28;20084;-64
2022/08/26 10:09:24;;;;;;;6.03;1.88;;;24.20;95.40;;;;;;5087059;28;20040;-64
2022/08/26 10:11:59;;;;;;;9.60;2.38;;;24.30;95.50;;;;;;5087796;28;20078;-64
2022/08/26 10:14:56;;;;;;;7.72;2.15;;;24.40;95.20;;;;;;5087155;28;20032;-63
2022/08/26 10:17:32;;;;;;;9.23;2.28;;;24.40;95.10;;;;;;5083978;28;20035;-64
2022/08/26 10:20:08;;;;;;;5.55;2.20;;;24.20;95.20;;;;;;5083944;28;20051;-64
2022/08/26 10:22:46;;;;;;;11.05;2.55;;;24.20;95.20;;;;;;5084808;28;20031;-64
2022/08/26 10:25:15;;;;;;;8.70;2.08;;;24.00;95.20;;;;;;5085561;28;20085;-64
2022/08/26 10:27:49;;;;;;;8.33;2.30;;;23.90;95.60;;;;;;5087737;28;20043;-63
2022/08/26 10:30:22;;;;;;;8.80;2.70;;;23.80;95.70;;;;;;5086604;28;20113;-64
2022/08/26 10:32:59;;;;;;;7.15;2.22;;;23.80;95.70;;;;;;5083409;28;20043;-64
2022/08/26 10:35:25;;;;;;;6.70;2.20;;;23.80;95.80;;;;;;5080688;28;20162;-63
2022/08/26 10:37:56;;;;;;;8.90;2.45;;;23.70;96.00;;;;;;5080723;28;20047;-64
2022/08/26 10:40:24;;;;;;;6.13;2.05;;;23.60;96.00;;;;;;5083530;28;20395;-64
2022/08/26 10:43:01;;;;;;;8.15;2.13;;;23.60;96.00;;;;;;5087870;28;20036;-64
2022/08/26 10:45:46;;;;;;;11.60;2.67;;;23.60;95.90;;;;;;5081648;28;20052;-64
2022/08/26 10:48:16;;;;;;;9.93;2.35;;;23.60;96.30;;;;;;5084860;28;20063;-64
2022/08/26 10:50:44;;;;;;;6.78;2.33;;;23.50;96.10;;;;;;5085577;28;20080;-64
2022/08/26 10:53:18;;;;;;;6.40;2.22;;;23.50;96.10;;;;;;5081533;28;20121;-63
2022/08/26 10:55:52;;;;;;;8.98;2.53;;;23.40;96.00;;;;;;5083380;28;20075;-64
2022/08/26 10:58:26;;;;;;;9.52;2.33;;;23.40;96.00;;;;;;5088419;28;20032;-63
2022/08/26 11:03:49;;;;;;;7.75;1.77;;;23.40;96.00;;;;;;5080745;28;20056;-64
2022/08/26 11:06:18;;;;;;;7.00;2.30;;;23.40;95.90;;;;;;5085733;28;21069;-63
2022/08/26 11:09:20;;;;;;;7.57;2.30;;;23.40;95.90;;;;;;5086464;28;20059;-64
2022/08/26 11:11:47;;;;;;;8.13;2.60;;;23.40;95.80;;;;;;5058320;28;20048;-64
2022/08/26 11:14:18;;;;;;;6.15;2.15;;;23.50;95.80;;;;;;5076436;28;20078;-64
2022/08/26 11:16:47;;;;;;;5.05;2.17;;;23.50;95.60;;;;;;5066144;28;20522;-64
2022/08/26 11:19:34;;;;;;;6.40;2.25;;;23.50;95.50;;;;;;5077464;28;20120;-64
2022/08/26 11:22:10;;;;;;;10.05;2.30;;;23.60;95.30;;;;;;5078187;28;20085;-64
2022/08/26 11:24:47;;;;;;;10.20;2.45;;;23.70;95.20;;;;;;5078122;28;20070;-66
2022/08/26 11:27:22;;;;;;;9.10;2.20;;;23.70;94.90;;;;;;5078650;28;20138;-65
2022/08/26 11:30:12;;;;;;;6.80;1.95;;;23.90;94.80;;;;;;5077242;28;20523;-66
2022/08/26 11:32:40;;;;;;;5.70;2.10;;;24.10;94.40;;;;;;5077858;28;20066;-64
2022/08/26 11:35:10;;;;;;;5.78;2.38;;;24.30;94.30;;;;;;5078159;28;20040;-65
2022/08/26 11:37:57;;;;;;;7.90;2.03;;;24.40;93.90;;;;;;5063353;28;20040;-64
2022/08/26 11:40:29;;;;;;;8.27;1.98;;;24.50;93.50;;;;;;5086015;28;20040;-64
2022/08/26 11:43:17;;;;;;;9.60;2.03;;;24.50;93.50;;;;;;5086996;28;20032;-64
2022/08/26 11:45:45;;;;;;;8.07;2.25;;;24.60;93.20;;;;;;5078561;28;20053;-64
2022/08/26 11:48:41;;;;;;;8.07;2.38;;;24.70;93.20;;;;;;5085861;28;20055;-64
2022/08/26 11:51:19;;;;;;;7.82;2.30;;;24.70;92.70;;;;;;5053161;28;20113;-65
2022/08/26 11:53:45;;;;;;;9.20;2.55;;;24.70;92.90;;;;;;5089996;28;20052;-64
2022/08/26 11:56:24;;;;;;;10.23;2.80;;;24.70;92.90;;;;;;5090975;28;20035;-64
2022/08/26 11:58:53;;;;;;;11.32;2.67;;;24.80;92.40;;;;;;5090118;28;20027;-65
2022/08/26 12:01:28;;;;;;;6.13;2.53;;;24.50;92.70;;;;;;5087832;28;20103;-64
2022/08/26 12:03:54;;;;;;;5.50;2.20;;;24.40;92.30;;;;;;5088708;28;20055;-64
2022/08/26 12:06:33;;;;;;;5.47;2.38;;;24.40;92.80;;;;;;5088476;28;20032;-64
2022/08/26 12:09:04;;;;;;;4.07;2.28;;;24.30;92.70;;;;;;5085101;28;20040;-64
2022/08/26 12:11:35;;;;;;;7.32;2.90;;;24.20;92.90;;;;;;5087538;28;20426;-65
2022/08/26 12:14:18;;;;;;;6.78;2.53;;;24.20;92.90;;;;;;5089794;28;20040;-64
2022/08/26 12:16:43;;;;;;;5.13;2.42;;;24.10;92.90;;;;;;5089233;28;20476;-65
2022/08/26 12:19:27;;;;;;;7.78;2.85;;;24.20;92.90;;;;;;5087624;28;20051;-65
2022/08/26 12:22:21;;;;;;;7.40;2.63;;;24.20;92.80;;;;;;5086879;28;20041;-65
2022/08/26 12:24:53;;;;;;;6.35;2.85;;;24.10;93.20;;;;;;5078547;28;20135;-64
2022/08/26 12:27:42;;;;;;;8.90;2.85;;;23.90;93.20;;;;;;5090336;28;20114;-64
2022/08/26 12:30:10;;;;;;;5.10;2.55;;;23.80;93.30;;;;;;5068005;28;20369;-64
2022/08/26 12:32:38;;;;;;;12.60;3.10;;;23.70;93.60;;;;;;5087913;28;20070;-64
2022/08/26 12:35:07;;;;;;;7.65;2.45;;;23.60;93.60;;;;;;5086071;28;20090;-64
2022/08/26 12:37:36;;;;;;;3.37;2.00;;;23.50;93.50;;;;;;5089539;28;20039;-65
2022/08/26 12:40:24;;;;;;;4.22;2.00;;;23.50;93.60;;;;;;5086819;28;20293;-64
2022/08/26 12:42:49;;;;;;;6.45;2.28;;;23.50;93.50;;;;;;5088543;28;20117;-64
2022/08/26 12:45:45;;;;;;;6.68;2.33;;;23.60;93.50;;;;;;5088590;28;20036;-65
2022/08/26 12:48:20;;;;;;;8.63;2.35;;;23.70;93.30;;;;;;5072646;28;20139;-64
2022/08/26 12:50:48;;;;;;;5.55;2.00;;;23.80;93.20;;;;;;5086434;28;20419;-64
2022/08/26 12:53:22;;;;;;;6.55;2.03;;;23.90;93.10;;;;;;5088046;28;20036;-64
2022/08/26 12:55:54;;;;;;;5.32;2.03;;;24.10;92.90;;;;;;5089088;28;20632;-64
2022/08/26 12:58:30;;;;;;;4.32;2.00;;;24.30;92.80;;;;;;5089025;28;20036;-64